Time;durP1;ratioP1;P1;durP2;ratioP2;P2;SDS_P1;SDS_P2;PMS_P1;PMS_P2;Temp;Humidity;BMP_temperature;BMP_pressure;BME280_temperature;BME280_humidity;BME280_pressure;Samples;Min_cycle;Max_cycle;Signal;HPM_P1;HPM_P2
2022/11/24 00:01:49;;;;;;;3.88;3.30;;;;;;;6.92;100.00;62710.44;5004849;28;20219;-74
2022/11/24 00:04:16;;;;;;;3.47;2.92;;;;;;;6.98;100.00;62716.09;5004694;28;20234;-74
2022/11/24 00:06:43;;;;;;;2.53;2.33;;;;;;;7.00;100.00;62720.69;5006993;28;20290;-74
2022/11/24 00:09:11;;;;;;;6.25;2.60;;;;;;;7.07;100.00;62724.88;5005263;28;20496;-74
2022/11/24 00:11:39;;;;;;;3.10;2.33;;;;;;;7.03;100.00;62719.25;4993055;28;20242;-75
2022/11/24 00:14:06;;;;;;;5.63;3.72;;;;;;;6.73;100.00;62690.31;5005940;28;20199;-73
2022/11/24 00:16:34;;;;;;;4.72;4.30;;;;;;;6.82;100.00;62697.59;5006520;28;20281;-74
2022/11/24 00:19:04;;;;;;;6.38;4.13;;;;;;;6.86;100.00;62704.25;4997507;28;20274;-75
2022/11/24 00:21:31;;;;;;;4.28;3.88;;;;;;;6.88;100.00;62708.84;4994454;28;20223;-75
2022/11/24 00:23:59;;;;;;;4.88;4.20;;;;;;;6.86;100.00;62704.25;5005250;28;20210;-76
2022/11/24 00:26:29;;;;;;;5.63;4.70;;;;;;;6.81;100.00;62701.63;5006223;28;20239;-75
2022/11/24 00:28:57;;;;;;;4.75;4.05;;;;;;;6.86;100.00;62701.19;5003500;28;20203;-73
2022/11/24 00:31:26;;;;;;;5.15;4.63;;;;;;;6.89;100.00;62707.34;5005052;28;20249;-74
2022/11/24 00:33:55;;;;;;;5.05;3.67;;;;;;;6.94;100.00;62715.03;5006490;28;20200;-73
2022/11/24 00:36:24;;;;;;;8.48;3.20;;;;;;;6.85;100.00;62702.69;4993034;28;20239;-74
2022/11/24 00:38:54;;;;;;;4.43;3.60;;;;;;;6.89;100.00;62711.88;4993422;28;20204;-76
2022/11/24 00:41:22;;;;;;;3.75;2.58;;;;;;;6.75;100.00;62692.38;4987579;28;20231;-74
2022/11/24 00:43:50;;;;;;;4.40;2.83;;;;;;;6.78;100.00;62698.50;4996232;28;20195;-73
2022/11/24 00:46:18;;;;;;;3.33;2.47;;;;;;;6.73;100.00;62690.31;5003370;28;20231;-73
2022/11/24 00:48:45;;;;;;;2.45;2.28;;;;;;;6.72;100.00;62691.81;4990933;28;20281;-75
2022/11/24 00:51:13;;;;;;;3.05;2.85;;;;;;;6.67;100.00;62689.72;4987600;28;20223;-74
2022/11/24 00:53:40;;;;;;;4.78;3.33;;;;;;;6.70;100.00;62684.69;5004705;28;20210;-74
2022/11/24 00:56:08;;;;;;;6.55;3.28;;;;;;;6.74;100.00;62688.81;5003641;28;20411;-74
2022/11/24 00:58:36;;;;;;;5.03;3.63;;;;;;;6.76;100.00;62693.94;5004503;28;20303;-74
2022/11/24 01:01:07;;;;;;;5.18;2.92;;;;;;;6.78;100.00;62698.50;5005750;28;20415;-74
2022/11/24 01:03:34;;;;;;;4.93;2.55;;;;;;;6.82;100.00;62697.06;5004378;28;20551;-74
2022/11/24 01:06:05;;;;;;;2.33;2.22;;;;;;;6.89;100.00;62707.34;5001031;28;20227;-75
2022/11/24 01:08:32;;;;;;;2.63;2.33;;;;;;;6.89;100.00;62704.81;5004193;28;20444;-75
2022/11/24 01:11:11;;;;;;;2.35;2.13;;;;;;;6.79;100.00;62699.56;5005142;28;20231;-74
2022/11/24 01:13:38;;;;;;;5.63;2.58;;;;;;;6.84;100.00;62704.72;5002911;28;20199;-74
2022/11/24 01:16:12;;;;;;;4.15;2.03;;;;;;;6.87;100.00;62702.22;5004080;28;20455;-75
2022/11/24 01:18:39;;;;;;;8.38;2.15;;;;;;;6.79;100.00;62693.97;5002706;28;20217;-74
2022/11/24 01:21:06;;;;;;;2.10;2.00;;;;;;;6.54;100.00;62671.22;5004536;28;20297;-76
2022/11/24 01:23:33;;;;;;;3.45;1.90;;;;;;;6.57;100.00;62674.34;5003895;28;20235;-75
2022/11/24 01:26:00;;;;;;;11.50;2.58;;;;;;;6.51;100.00;62670.16;5003990;28;20258;-74
2022/11/24 01:28:27;;;;;;;2.40;2.00;;;;;;;6.58;100.00;62677.91;5004394;28;20199;-73
2022/11/24 01:30:58;;;;;;;4.10;2.28;;;;;;;6.65;100.00;62682.59;5004409;28;20219;-74
2022/11/24 01:33:26;;;;;;;3.05;2.15;;;;;;;6.64;100.00;62683.56;4989526;28;20268;-73
2022/11/24 01:35:53;;;;;;;3.85;2.30;;;;;;;6.70;100.00;62687.22;5002457;28;20590;-76
2022/11/24 01:38:21;;;;;;;3.65;2.95;;;;;;;6.68;100.00;62688.19;5004397;28;20206;-74
2022/11/24 01:40:49;;;;;;;3.95;2.15;;;;;;;6.61;100.00;62680.47;5002231;28;20287;-74
2022/11/24 01:43:17;;;;;;;2.47;2.08;;;;;;;6.68;100.00;62690.22;5005315;28;20546;-74
2022/11/24 01:45:45;;;;;;;4.47;2.90;;;;;;;6.64;100.00;62681.53;5003912;28;20219;-75
2022/11/24 01:48:19;;;;;;;4.28;2.15;;;;;;;6.72;100.00;62694.34;5003321;28;20211;-74
2022/11/24 01:50:54;;;;;;;7.50;2.40;;;;;;;6.78;100.00;62698.00;4995025;28;20270;-74
2022/11/24 01:53:23;;;;;;;2.88;2.05;;;;;;;6.80;100.00;62695.50;4985826;28;20509;-75
2022/11/24 01:55:51;;;;;;;3.03;2.30;;;;;;;6.81;100.00;62696.56;5002671;28;20235;-74
2022/11/24 01:58:22;;;;;;;6.78;2.38;;;;;;;6.88;100.00;62706.31;5003450;28;20231;-75
2022/11/24 02:00:49;;;;;;;2.95;2.38;;;;;;;6.92;100.00;62707.38;5003071;28;20432;-73
2022/11/24 02:03:20;;;;;;;2.45;1.85;;;;;;;6.80;100.00;62705.63;5004441;28;20199;-74
2022/11/24 02:05:57;;;;;;;2.47;1.65;;;;;;;6.67;100.00;62686.66;5002300;28;20227;-75
2022/11/24 02:08:30;;;;;;;2.15;1.90;;;;;;;6.77;100.00;62694.97;5002876;28;20195;-75
2022/11/24 02:10:57;;;;;;;4.20;1.83;;;;;;;6.78;100.00;62695.97;4987033;28;20258;-74
2022/11/24 02:13:25;;;;;;;2.38;2.17;;;;;;;6.82;100.00;62700.13;5003931;28;20199;-74
2022/11/24 02:15:53;;;;;;;3.55;2.10;;;;;;;6.83;100.00;62706.19;5003103;28;20234;-74
2022/11/24 02:18:20;;;;;;;2.50;2.00;;;;;;;6.81;100.00;62699.09;4991343;28;20255;-74
2022/11/24 02:20:46;;;;;;;2.75;2.05;;;;;;;6.94;100.00;62714.50;4995023;28;20224;-73
2022/11/24 02:23:21;;;;;;;2.35;2.20;;;;;;;6.99;100.00;62720.19;5002572;28;20203;-74
2022/11/24 02:25:58;;;;;;;3.55;2.38;;;;;;;6.99;100.00;62720.19;5002446;28;20219;-74
2022/11/24 02:28:28;;;;;;;2.17;2.03;;;;;;;7.05;100.00;62723.31;5003525;28;20203;-74
2022/11/24 02:30:56;;;;;;;2.33;2.22;;;;;;;7.06;100.00;62726.38;5003990;28;20250;-74
2022/11/24 02:33:24;;;;;;;6.20;2.38;;;;;;;7.08;100.00;62731.47;5002197;28;20450;-74
2022/11/24 02:35:51;;;;;;;2.40;2.20;;;;;;;7.13;100.00;62733.59;5002170;28;20231;-73
2022/11/24 02:38:18;;;;;;;3.42;2.10;;;;;;;7.17;100.00;62740.78;5003901;28;20199;-73
2022/11/24 02:40:49;;;;;;;5.97;2.05;;;;;;;7.17;100.00;62737.72;5002645;28;20223;-74
2022/11/24 02:43:19;;;;;;;4.50;2.55;;;;;;;7.16;100.00;62734.69;5002517;28;20547;-74
2022/11/24 02:45:48;;;;;;;2.72;2.00;;;;;;;7.23;100.00;62741.88;5002290;28;20274;-74
2022/11/24 02:48:15;;;;;;;4.15;2.30;;;;;;;7.24;100.00;62742.94;5003400;28;20224;-73
2022/11/24 02:50:42;;;;;;;3.03;2.03;;;;;;;7.26;100.00;62747.53;5004145;28;20297;-74
2022/11/24 02:53:09;;;;;;;4.65;2.10;;;;;;;7.24;100.00;62747.47;5002095;28;20416;-73
2022/11/24 02:55:36;;;;;;;3.50;2.10;;;;;;;7.23;100.00;62743.91;4991435;28;20234;-73
2022/11/24 02:58:02;;;;;;;4.85;2.40;;;;;;;7.18;100.00;62736.22;5003681;28;20500;-74
2022/11/24 03:00:29;;;;;;;4.53;1.83;;;;;;;7.14;100.00;62732.09;5002849;28;20382;-74
2022/11/24 03:02:58;;;;;;;3.47;2.63;;;;;;;7.06;100.00;62726.88;5001781;28;20550;-74
2022/11/24 03:05:25;;;;;;;2.42;1.92;;;;;;;7.12;100.00;62727.50;5003504;28;20583;-74
2022/11/24 03:07:51;;;;;;;2.45;2.22;;;;;;;7.15;100.00;62733.13;5003778;28;20200;-75
2022/11/24 03:10:18;;;;;;;7.32;2.85;;;;;;;7.15;100.00;62735.66;5002893;28;20245;-75
2022/11/24 03:12:45;;;;;;;2.10;2.00;;;;;;;7.17;100.00;62740.25;5001612;28;20208;-76
2022/11/24 03:15:13;;;;;;;2.45;2.20;;;;;;;7.18;100.00;62736.22;5003329;28;20426;-77
2022/11/24 03:17:41;;;;;;;2.22;2.13;;;;;;;7.18;100.00;62736.22;5004427;28;20204;-75
2022/11/24 03:20:12;;;;;;;4.10;2.90;;;;;;;7.22;100.00;62743.41;5001722;28;20269;-77
2022/11/24 03:22:39;;;;;;;2.05;1.95;;;;;;;7.24;100.00;62747.47;5003065;28;20195;-76
2022/11/24 03:25:07;;;;;;;3.38;2.35;;;;;;;7.27;100.00;62746.03;5003738;28;20278;-74
2022/11/24 03:27:33;;;;;;;2.88;2.22;;;;;;;7.31;100.00;62744.56;5001146;28;20208;-74
2022/11/24 03:30:01;;;;;;;2.35;2.20;;;;;;;7.33;100.00;62752.22;4996628;28;20192;-75
2022/11/24 03:32:28;;;;;;;3.35;2.05;;;;;;;7.36;100.00;62757.84;5003288;28;20199;-75
2022/11/24 03:34:55;;;;;;;2.60;2.42;;;;;;;7.43;100.00;62762.03;5004777;28;20195;-75
2022/11/24 03:37:23;;;;;;;4.03;2.88;;;;;;;7.46;100.00;62767.63;5001579;28;20203;-77
2022/11/24 03:39:51;;;;;;;2.83;2.60;;;;;;;7.52;100.00;62774.38;5000732;28;20227;-75
2022/11/24 03:42:18;;;;;;;5.30;2.95;;;;;;;7.56;100.00;62778.47;5001009;28;20405;-74
2022/11/24 03:44:45;;;;;;;4.97;2.50;;;;;;;7.60;100.00;62785.16;5003875;28;20205;-74
2022/11/24 03:47:12;;;;;;;2.88;2.58;;;;;;;7.68;100.00;62788.34;5001789;28;20199;-74
2022/11/24 03:49:40;;;;;;;5.85;4.05;;;;;;;7.63;100.00;62780.63;4984844;28;20214;-75
2022/11/24 03:52:07;;;;;;;6.07;4.05;;;;;;;7.67;100.00;62792.38;4995493;28;20223;-76
2022/11/24 03:54:35;;;;;;;10.05;4.78;;;;;;;7.67;100.00;62786.78;5002542;28;20203;-75
2022/11/24 03:57:02;;;;;;;4.97;4.18;;;;;;;7.67;100.00;62789.84;5002765;28;20242;-75
2022/11/24 03:59:29;;;;;;;10.02;5.38;;;;;;;7.73;100.00;62795.53;5000636;28;20238;-74
2022/11/24 04:01:56;;;;;;;6.93;5.10;;;;;;;7.74;100.00;62791.47;5000781;28;20252;-73
2022/11/24 04:04:22;;;;;;;5.18;4.68;;;;;;;7.72;100.00;62794.47;5002224;28;20203;-74
2022/11/24 04:06:49;;;;;;;7.10;4.63;;;;;;;7.70;100.00;62792.41;5003301;28;20219;-74
2022/11/24 04:09:16;;;;;;;5.20;4.80;;;;;;;7.64;100.00;62789.28;5002718;28;20223;-76
2022/11/24 04:14:30;;;;;;;7.22;4.88;;;;;;;7.62;100.00;62784.69;5001652;28;20215;-77
2022/11/24 04:16:57;;;;;;;5.22;4.55;;;;;;;7.49;100.00;62771.25;5002870;28;20281;-74
2022/11/24 04:19:24;;;;;;;4.85;4.30;;;;;;;7.45;100.00;62762.06;5000243;28;20200;-79
2022/11/24 04:21:51;;;;;;;5.07;4.50;;;;;;;7.47;100.00;62766.66;5001886;28;20219;-76
2022/11/24 04:24:19;;;;;;;8.20;4.53;;;;;;;7.50;100.00;62771.78;5003693;28;20204;-75
2022/11/24 04:26:47;;;;;;;7.35;5.32;;;;;;;7.36;100.00;62757.84;5001963;28;20219;-76
2022/11/24 04:29:15;;;;;;;7.03;5.43;;;;;;;7.30;100.00;62748.59;5000983;28;20207;-77
2022/11/24 04:31:42;;;;;;;5.80;5.20;;;;;;;7.32;100.00;62753.72;5002374;28;20544;-75
2022/11/24 04:34:10;;;;;;;10.75;5.88;;;;;;;7.34;100.00;62753.25;5002326;28;20370;-74
2022/11/24 04:36:39;;;;;;;7.55;5.85;;;;;;;7.34;100.00;62755.25;5002889;28;20386;-74
2022/11/24 04:39:06;;;;;;;8.45;6.75;;;;;;;7.37;100.00;62756.34;4994670;28;20219;-74
2022/11/24 04:41:33;;;;;;;8.85;6.95;;;;;;;7.24;100.00;62742.94;5002148;28;20219;-76
2022/11/24 04:44:02;;;;;;;10.52;6.32;;;;;;;7.14;100.00;62732.09;5005327;28;20207;-76
2022/11/24 04:46:29;;;;;;;10.50;6.28;;;;;;;7.30;100.00;62754.19;5005102;28;20220;-76
2022/11/24 04:48:56;;;;;;;10.07;5.97;;;;;;;7.31;100.00;62742.56;4989616;28;20268;-76
2022/11/24 04:51:22;;;;;;;7.03;5.68;;;;;;;7.40;100.00;62761.47;4998881;28;20230;-74
2022/11/24 04:53:49;;;;;;;11.40;7.15;;;;;;;7.34;100.00;62757.78;5001685;28;20207;-73
2022/11/24 04:56:16;;;;;;;9.95;6.95;;;;;;;7.24;100.00;62745.47;5003722;28;20433;-74
2022/11/24 04:58:43;;;;;;;11.43;6.32;;;;;;;7.24;100.00;62739.88;4994723;28;20200;-74
2022/11/24 05:01:11;;;;;;;10.00;6.65;;;;;;;7.34;100.00;62755.78;5006073;28;20266;-74
2022/11/24 05:03:38;;;;;;;7.70;6.38;;;;;;;7.43;100.00;62767.59;5006790;28;20204;-74
2022/11/24 05:06:07;;;;;;;8.02;5.28;;;;;;;7.50;100.00;62769.75;5004384;28;20223;-73
2022/11/24 05:08:34;;;;;;;5.43;4.40;;;;;;;7.49;100.00;62776.31;5003606;28;20250;-73
2022/11/24 05:11:04;;;;;;;5.07;4.15;;;;;;;7.58;100.00;62780.03;4999055;28;20227;-75
2022/11/24 05:13:31;;;;;;;5.15;2.97;;;;;;;7.62;100.00;62782.16;5003759;28;20234;-75
2022/11/24 05:16:00;;;;;;;5.88;3.70;;;;;;;7.59;100.00;62781.06;5001864;28;20231;-77
2022/11/24 05:18:28;;;;;;;8.65;5.50;;;;;;;7.64;100.00;62789.28;5002502;28;20380;-74
2022/11/24 05:20:55;;;;;;;6.90;5.40;;;;;;;7.65;100.00;62787.25;5003869;28;20230;-74
2022/11/24 05:23:22;;;;;;;9.80;4.70;;;;;;;7.65;100.00;62780.19;5003810;28;20339;-76
2022/11/24 05:25:49;;;;;;;9.00;5.25;;;;;;;7.65;100.00;62787.25;5002414;28;20458;-75
2022/11/24 05:28:17;;;;;;;12.80;5.18;;;;;;;7.66;100.00;62785.75;5004354;28;20207;-74
2022/11/24 05:30:45;;;;;;;7.55;4.45;;;;;;;7.73;100.00;62793.50;5005560;28;20524;-74
2022/11/24 05:33:17;;;;;;;5.30;3.72;;;;;;;7.69;100.00;62789.38;5000251;28;20203;-74
2022/11/24 05:35:46;;;;;;;6.90;4.40;;;;;;;7.69;100.00;62791.91;5003611;28;20230;-75
2022/11/24 05:38:13;;;;;;;11.13;2.88;;;;;;;7.65;100.00;62789.78;5002780;28;20211;-75
2022/11/24 05:40:39;;;;;;;2.70;2.50;;;;;;;7.64;100.00;62783.69;5004247;28;20232;-74
2022/11/24 05:43:10;;;;;;;7.53;3.10;;;;;;;7.70;100.00;62792.94;5005049;28;20203;-77
2022/11/24 05:45:38;;;;;;;2.70;2.45;;;;;;;7.65;100.00;62790.31;5005024;28;20230;-76
2022/11/24 05:48:06;;;;;;;3.60;2.97;;;;;;;7.71;100.00;62793.47;5001965;28;20215;-76
2022/11/24 05:50:34;;;;;;;4.13;3.58;;;;;;;7.72;100.00;62797.53;5003693;28;20246;-74
2022/11/24 05:53:04;;;;;;;3.55;2.80;;;;;;;7.71;100.00;62793.47;5003823;28;20207;-77
2022/11/24 05:55:31;;;;;;;4.22;3.53;;;;;;;7.73;100.00;62796.03;5003037;28;20526;-76
2022/11/24 05:58:00;;;;;;;3.00;2.80;;;;;;;7.75;100.00;62798.09;4995379;28;20203;-81
2022/11/24 06:00:27;;;;;;;5.38;3.45;;;;;;;7.80;100.00;62802.75;5006490;28;20227;-79
2022/11/24 06:02:54;;;;;;;4.32;3.92;;;;;;;7.83;100.00;62808.91;5006762;28;20426;-77
2022/11/24 06:05:21;;;;;;;6.70;3.63;;;;;;;7.92;100.00;62815.16;5006158;28;20219;-78
2022/11/24 06:07:48;;;;;;;4.60;3.70;;;;;;;7.96;100.00;62819.78;5007773;28;20561;-80
2022/11/24 06:10:17;;;;;;;6.88;5.45;;;;;;;7.84;100.00;62809.41;5006028;28;20228;-81
2022/11/24 06:12:46;;;;;;;5.25;4.30;;;;;;;7.98;100.00;62823.88;5000152;28;20226;-78
2022/11/24 06:15:13;;;;;;;5.28;3.97;;;;;;;7.98;100.00;62816.25;4997684;28;20231;-81
2022/11/24 06:17:41;;;;;;;6.68;4.38;;;;;;;7.78;100.00;62801.19;4994712;28;20238;-78
2022/11/24 06:20:09;;;;;;;5.15;4.70;;;;;;;7.75;100.00;62792.50;4989364;28;20224;-77
2022/11/24 06:22:37;;;;;;;5.22;4.65;;;;;;;7.81;100.00;62809.38;4987592;28;20246;-79
2022/11/24 06:25:04;;;;;;;8.15;4.57;;;;;;;7.97;100.00;62820.31;4987221;28;20399;-79
2022/11/24 06:27:33;;;;;;;4.30;3.90;;;;;;;8.14;100.00;62837.84;5006881;28;20199;-79
2022/11/24 06:29:59;;;;;;;8.40;4.97;;;;;;;8.30;100.00;62851.84;5006130;28;20219;-77
2022/11/24 06:32:26;;;;;;;9.90;5.63;;;;;;;8.47;100.00;62869.44;5005710;28;20200;-79
2022/11/24 06:34:53;;;;;;;7.65;5.15;;;;;;;8.62;100.00;62884.91;4999660;28;20222;-78
2022/11/24 06:37:20;;;;;;;6.18;5.57;;;;;;;8.69;100.00;62894.16;4988269;28;20274;-78
2022/11/24 06:39:48;;;;;;;6.68;5.95;;;;;;;8.80;100.00;62903.50;5000465;28;20279;-79
2022/11/24 06:42:17;;;;;;;9.43;5.80;;;;;;;8.90;100.00;62916.41;5000959;28;20199;-78
2022/11/24 06:44:46;;;;;;;8.98;5.88;;;;;;;8.97;100.00;62925.66;4993861;28;20200;-77
2022/11/24 06:47:13;;;;;;;14.70;8.02;;;;;;;8.58;100.00;62885.84;4987077;28;20196;-78
2022/11/24 06:49:40;;;;;;;14.88;6.63;;;;;;;8.57;100.00;62882.28;4998863;28;20268;-78
2022/11/24 06:52:07;;;;;;;11.77;7.35;;;;;;;8.48;100.00;62872.47;4992891;28;20215;-79
2022/11/24 06:54:34;;;;;;;14.38;7.35;;;;;;;8.64;100.00;62883.94;4996047;28;20220;-79
2022/11/24 06:57:02;;;;;;;13.88;7.90;;;;;;;8.65;100.00;62888.00;5001372;28;20599;-79
2022/11/24 06:59:28;;;;;;;18.15;8.05;;;;;;;8.88;100.00;62916.34;4991442;28;20196;-78
2022/11/24 07:01:57;;;;;;;16.25;9.63;;;;;;;9.03;100.00;62929.31;5001984;28;20220;-79
2022/11/24 07:04:23;;;;;;;17.45;8.88;;;;;;;8.80;100.00;62900.97;4998416;28;20435;-77
2022/11/24 07:06:50;;;;;;;15.85;9.98;;;;;;;8.83;100.00;62908.63;5004863;28;20225;-78
2022/11/24 07:09:17;;;;;;;13.93;9.13;;;;;;;8.72;100.00;62897.78;4992162;28;20280;-79
2022/11/24 07:11:44;;;;;;;17.33;9.15;;;;;;;8.59;100.00;62884.38;5006852;28;20233;-79
2022/11/24 07:14:11;;;;;;;25.85;10.50;;;;;;;8.40;100.00;62861.69;4995880;28;20207;-80
2022/11/24 07:16:39;;;;;;;27.10;11.68;;;;;;;8.01;100.00;62819.34;4993918;28;20232;-79
2022/11/24 07:19:10;;;;;;;15.63;8.55;;;;;;;8.05;100.00;62826.03;5002830;28;21220;-80
2022/11/24 07:21:37;;;;;;;17.70;10.85;;;;;;;8.01;100.00;62819.88;4993509;28;20282;-78
2022/11/24 07:24:04;;;;;;;19.70;10.32;;;;;;;7.92;100.00;62813.09;4994414;28;20293;-79
2022/11/24 07:26:35;;;;;;;19.92;11.00;;;;;;;7.87;100.00;62807.44;5006338;28;20219;-78
2022/11/24 07:29:03;;;;;;;19.33;11.50;;;;;;;8.07;100.00;62828.63;4991127;28;20212;-77
2022/11/24 07:31:29;;;;;;;22.75;11.68;;;;;;;8.31;100.00;62854.91;5002330;28;20232;-79
2022/11/24 07:33:56;;;;;;;31.02;12.90;;;;;;;8.42;100.00;62861.72;4989189;28;20204;-78
2022/11/24 07:36:25;;;;;;;22.98;12.98;;;;;;;8.53;100.00;62877.63;4996762;28;20234;-79
2022/11/24 07:38:52;;;;;;;20.15;13.45;;;;;;;8.71;100.00;62896.25;5006408;28;20199;-79
2022/11/24 07:41:19;;;;;;;22.98;12.93;;;;;;;8.61;100.00;62881.34;4991956;28;20227;-75
2022/11/24 07:43:47;;;;;;;15.55;11.75;;;;;;;8.20;100.00;62844.56;4989903;28;20258;-77
2022/11/24 07:46:16;;;;;;;24.00;12.82;;;;;;;7.95;100.00;62815.69;4991784;28;20263;-76
2022/11/24 07:48:43;;;;;;;23.05;11.15;;;;;;;7.96;100.00;62821.78;4986983;28;20508;-76
2022/11/24 07:51:10;;;;;;;18.00;7.78;;;;;;;8.20;100.00;62841.50;5003564;28;20219;-75
2022/11/24 07:53:38;;;;;;;9.30;6.97;;;;;;;8.44;100.00;62868.34;5003828;28;20199;-76
2022/11/24 07:56:06;;;;;;;9.88;7.15;;;;;;;8.33;100.00;62851.91;5004072;28;20225;-77
2022/11/24 07:58:35;;;;;;;8.98;6.97;;;;;;;8.42;100.00;62866.28;5003740;28;20238;-74
2022/11/24 08:01:13;;;;;;;10.30;6.97;;;;;;;8.43;100.00;62867.31;5003336;28;20242;-77
2022/11/24 08:03:40;;;;;;;10.02;7.53;;;;;;;7.87;100.00;62807.44;5003588;28;20571;-75
2022/11/24 08:06:07;;;;;;;13.63;7.97;;;;;;;7.72;100.00;62792.47;5003493;28;20227;-75
2022/11/24 08:08:34;;;;;;;12.13;8.65;;;;;;;7.54;100.00;62773.38;5003293;28;20203;-77
2022/11/24 08:11:07;;;;;;;12.50;9.13;;;;;;;7.57;100.00;62777.00;5003822;28;20227;-75
2022/11/24 08:13:34;;;;;;;15.13;9.95;;;;;;;7.32;100.00;62748.66;5003844;28;20210;-77
2022/11/24 08:16:05;;;;;;;13.38;9.82;;;;;;;7.39;100.00;62760.41;5005601;28;20223;-75
2022/11/24 08:18:32;;;;;;;9.25;8.18;;;;;;;7.22;100.00;62740.88;5007472;28;20262;-76
2022/11/24 08:20:59;;;;;;;10.23;7.15;;;;;;;6.90;100.00;62713.41;5004917;28;23735;-75
2022/11/24 08:23:26;;;;;;;6.28;5.68;;;;;;;6.64;100.00;62686.09;4987933;28;20282;-76
2022/11/24 08:25:55;;;;;;;13.75;7.93;;;;;;;6.58;100.00;62680.41;4988101;28;20220;-76
2022/11/24 08:28:24;;;;;;;11.60;8.93;;;;;;;6.55;100.00;62676.81;4995397;28;20207;-77
2022/11/24 08:30:51;;;;;;;10.32;8.48;;;;;;;6.11;100.00;62628.94;5007613;28;20606;-75
2022/11/24 08:33:17;;;;;;;14.73;9.30;;;;;;;6.16;100.00;62631.56;5007368;28;20200;-75
2022/11/24 08:35:44;;;;;;;9.70;8.43;;;;;;;5.52;100.00;62564.06;5008176;28;20241;-77
2022/11/24 08:38:11;;;;;;;9.80;8.77;;;;;;;5.97;100.00;62614.50;4993570;28;20234;-76
2022/11/24 08:40:38;;;;;;;11.13;9.13;;;;;;;5.95;100.00;62609.91;4989389;28;20224;-78
2022/11/24 08:43:05;;;;;;;14.95;10.48;;;;;;;5.93;100.00;62610.38;4988504;28;20497;-76
2022/11/24 08:45:33;;;;;;;12.80;9.20;;;;;;;5.91;100.00;62600.72;4987596;28;20219;-76
2022/11/24 08:48:01;;;;;;;11.55;9.10;;;;;;;5.87;100.00;62606.72;4988836;28;20196;-76
2022/11/24 08:50:29;;;;;;;14.07;8.90;;;;;;;5.92;100.00;62604.28;4988892;28;20216;-77
2022/11/24 08:52:56;;;;;;;13.40;9.38;;;;;;;5.92;100.00;62609.84;4988049;28;20224;-77
2022/11/24 08:55:24;;;;;;;11.50;9.57;;;;;;;6.03;100.00;62618.66;4991298;28;20224;-76
2022/11/24 08:57:53;;;;;;;14.20;10.30;;;;;;;6.03;100.00;62618.66;5007812;28;20258;-76
2022/11/24 09:00:22;;;;;;;14.43;10.25;;;;;;;6.00;100.00;62612.53;5007530;28;20227;-76
2022/11/24 09:02:58;;;;;;;15.77;10.13;;;;;;;5.99;100.00;62616.56;5006339;28;20265;-75
2022/11/24 09:05:25;;;;;;;10.30;8.55;;;;;;;6.05;100.00;62622.72;4992844;28;20224;-75
2022/11/24 09:07:52;;;;;;;10.40;8.02;;;;;;;6.10;100.00;62625.88;4986858;28;20203;-76
2022/11/24 09:10:19;;;;;;;10.40;6.88;;;;;;;6.12;100.00;62629.94;4986927;28;20240;-76
2022/11/24 09:12:47;;;;;;;10.13;7.05;;;;;;;6.31;100.00;62647.53;4987310;28;20211;-76
2022/11/24 09:15:15;;;;;;;7.18;6.03;;;;;;;6.15;100.00;62625.97;4996912;28;20447;-76
2022/11/24 09:17:43;;;;;;;9.57;6.05;;;;;;;6.05;100.00;62622.72;5006395;28;20559;-75
2022/11/24 09:20:12;;;;;;;10.52;6.03;;;;;;;6.03;100.00;62618.13;5006175;28;20215;-75
2022/11/24 09:22:40;;;;;;;6.13;5.07;;;;;;;6.11;100.00;62623.88;5001246;28;20533;-74
2022/11/24 09:25:07;;;;;;;4.90;3.45;;;;;;;6.17;100.00;62635.09;4986837;28;20227;-75
2022/11/24 09:27:35;;;;;;;4.13;3.78;;;;;;;6.07;100.00;62622.78;4985360;28;20505;-75
2022/11/24 09:30:02;;;;;;;7.82;4.65;;;;;;;6.06;100.00;62619.22;4986306;28;20397;-75
2022/11/24 09:32:29;;;;;;;5.07;4.68;;;;;;;6.10;100.00;62628.41;4999454;28;20208;-74
2022/11/24 09:34:56;;;;;;;4.45;3.92;;;;;;;6.06;100.00;62619.22;5006317;28;20508;-75
2022/11/24 09:37:24;;;;;;;5.13;3.80;;;;;;;6.05;100.00;62625.25;5005412;28;20237;-75
2022/11/24 09:39:51;;;;;;;4.68;2.13;;;;;;;6.11;100.00;62624.38;5004948;28;20195;-75
2022/11/24 09:42:30;;;;;;;2.03;1.92;;;;;;;6.07;100.00;62619.75;5005464;28;20204;-76
2022/11/24 09:45:27;;;;;;;2.75;2.20;;;;;;;6.06;100.00;62621.25;5005475;28;20219;-76
2022/11/24 09:48:02;;;;;;;1.77;1.67;;;;;;;6.17;100.00;62630.56;4972060;28;20249;-73
2022/11/24 09:50:33;;;;;;;1.95;1.60;;;;;;;6.14;100.00;62630.00;5004109;28;20234;-76
2022/11/24 09:53:09;;;;;;;1.10;1.00;;;;;;;6.14;100.00;62630.00;5005296;28;20187;-75
2022/11/24 09:55:40;;;;;;;1.73;1.63;;;;;;;6.19;100.00;62640.22;5005500;28;20210;-76
2022/11/24 09:58:17;;;;;;;2.65;1.30;;;;;;;6.36;100.00;62652.69;5003636;28;20273;-77
2022/11/24 10:00:45;;;;;;;1.30;1.30;;;;;;;6.41;100.00;62657.31;4985721;28;20535;-77
2022/11/24 10:03:19;;;;;;;1.38;0.90;;;;;;;6.38;100.00;62651.69;4986015;28;20206;-75
2022/11/24 10:05:50;;;;;;;0.80;0.80;;;;;;;6.29;100.00;62650.53;4985892;28;20444;-75
2022/11/24 10:08:31;;;;;;;2.20;1.50;;;;;;;6.21;100.00;62639.22;4985643;28;20207;-77
2022/11/24 10:11:01;;;;;;;7.03;1.80;;;;;;;6.14;100.00;62629.47;4985919;28;20270;-75
2022/11/24 10:13:47;;;;;;;1.63;1.52;;;;;;;6.29;100.00;62642.41;4985613;28;20208;-75
2022/11/24 10:16:35;;;;;;;1.30;1.30;;;;;;;6.34;100.00;62650.09;4998780;28;20279;-76
2022/11/24 10:19:14;;;;;;;1.52;1.48;;;;;;;6.25;100.00;62643.34;4995708;28;20249;-76
2022/11/24 10:21:54;;;;;;;2.28;1.52;;;;;;;6.37;100.00;62653.19;4996887;28;20282;-75
2022/11/24 10:24:36;;;;;;;1.48;1.33;;;;;;;6.13;100.00;62628.97;4992911;28;20202;-77
2022/11/24 10:27:13;;;;;;;1.40;1.40;;;;;;;5.60;100.00;62576.84;4988926;28;20226;-76
2022/11/24 10:29:42;;;;;;;1.98;1.88;;;;;;;5.73;100.00;62592.75;4997951;28;20234;-77
2022/11/24 10:32:16;;;;;;;2.03;1.92;;;;;;;5.90;100.00;62604.75;5003987;28;20219;-76
2022/11/24 10:34:45;;;;;;;1.88;1.77;;;;;;;5.53;100.00;62567.63;4987980;28;20259;-76
2022/11/24 10:37:18;;;;;;;1.88;1.70;;;;;;;5.39;100.00;62552.69;5003189;28;20235;-76
2022/11/24 10:39:57;;;;;;;1.85;1.75;;;;;;;5.53;100.00;62567.13;4989172;28;20195;-77
2022/11/24 10:42:28;;;;;;;2.10;2.00;;;;;;;5.43;100.00;62559.88;5004108;28;20199;-77
2022/11/24 10:45:11;;;;;;;2.70;2.50;;;;;;;5.42;100.00;62556.28;4993840;28;20204;-77
2022/11/24 10:47:38;;;;;;;2.13;2.03;;;;;;;5.45;100.00;62563.94;5003476;28;20204;-76
2022/11/24 10:50:20;;;;;;;2.30;2.17;;;;;;;5.56;100.00;62570.72;5002997;28;20500;-76
2022/11/24 10:52:51;;;;;;;1.27;1.27;;;;;;;5.45;100.00;62558.88;5000819;28;20195;-76
2022/11/24 10:55:21;;;;;;;1.90;1.80;;;;;;;5.47;100.00;62561.44;4988606;28;20479;-77
2022/11/24 10:57:48;;;;;;;2.33;2.22;;;;;;;5.51;100.00;62565.06;4988234;28;20220;-77
2022/11/24 11:00:31;;;;;;;2.67;2.47;;;;;;;5.70;100.00;62585.16;4992896;28;20219;-77
2022/11/24 11:03:15;;;;;;;2.60;2.40;;;;;;;5.97;100.00;62615.00;4983625;28;20204;-76
2022/11/24 11:05:44;;;;;;;2.08;1.98;;;;;;;5.88;100.00;62602.69;4984948;28;20609;-77
2022/11/24 11:08:23;;;;;;;1.77;1.67;;;;;;;5.79;100.00;62599.47;4984481;28;20212;-76
2022/11/24 11:11:15;;;;;;;2.20;2.10;;;;;;;5.67;100.00;62579.00;4985899;28;20226;-76
2022/11/24 11:13:53;;;;;;;2.17;2.08;;;;;;;5.73;100.00;62585.72;5004788;28;20199;-75
2022/11/24 11:16:33;;;;;;;2.40;2.20;;;;;;;5.83;100.00;62603.59;5004770;28;20219;-75
2022/11/24 11:19:02;;;;;;;2.70;2.50;;;;;;;5.81;100.00;62595.97;5004012;28;20438;-76
2022/11/24 11:21:34;;;;;;;2.28;2.08;;;;;;;5.75;100.00;62589.78;4997094;28;20223;-74
2022/11/24 11:24:04;;;;;;;1.92;1.83;;;;;;;5.77;100.00;62592.38;5004193;28;20191;-76
2022/11/24 11:26:40;;;;;;;2.45;2.35;;;;;;;5.84;100.00;62606.66;5004381;28;20266;-77
2022/11/24 11:29:18;;;;;;;3.47;3.17;;;;;;;5.55;100.00;62571.69;4999473;28;20279;-76
2022/11/24 11:31:57;;;;;;;3.40;3.20;;;;;;;5.59;100.00;62568.25;4984598;28;20287;-77
2022/11/24 11:34:23;;;;;;;3.45;3.15;;;;;;;5.67;100.00;62579.53;4992669;28;20191;-76
2022/11/24 11:36:54;;;;;;;3.55;3.25;;;;;;;5.62;100.00;62574.38;5003691;28;20219;-77
2022/11/24 11:39:25;;;;;;;4.05;3.65;;;;;;;5.66;100.00;62581.03;4989685;28;20557;-77
2022/11/24 11:42:02;;;;;;;3.35;3.05;;;;;;;5.39;100.00;62552.69;4985753;28;20219;-76
2022/11/24 11:44:35;;;;;;;3.50;3.22;;;;;;;5.40;100.00;62551.72;5002889;28;20222;-76